Hovedside
METAR-TAF:

METAR-TAF

Lufthavner :

Southampton, England

breddegrad: 50-54N, lengdegrad: 001-24W, høyde over havet: 9 m

Gjeldene værobservasjon

Denne rapporten ble laget for 2 timer og 48 minutter siden, klokken 20:50 UTC
Vind 7 kt fra Sørvest, skiftende mellom Sør og Vest-sørvest
Temperatur 13°C
Luftfuktighet 82%
Trykk 1002 hPa
Sikt 10 km eller mer
Spredte skyer i en høyde av 2400 ft

METAR: EGHI 152050Z 22007KT 190V250 9999 SCT024 13/10 Q1002

Tid: 00:38 (23:38 UTC)

Varsel

Denne rapporten ble laget for 6 timer og 42 minutter siden, klokken 16:56 UTC
Varsel gyldig fra 15. klokken 18 UTC til 15. klokken 22 UTC
Vind 8 kt fra Sørvest
Sikt 10 km eller mer
Spredte skyer i en høyde av 2500 ft
Sannsynlighet 30% :
Midlertidig
fra 15. klokken 18 UTC til 15. klokken 22 UTC
Sikt: 6000 m
regnbyger,

TAF: EGHI 151656Z 1518/1522 23008KT 9999 SCT025 PROB30 TEMPO 1518/1522 6000 SHRA

Værobservasjoner og værvarsel for over 4000 flyplasser (METAR- og TAF-rapporter).

Tilgjengelige stasjoner er representert av de røde og gule prikkene på kartet.

Hold musepekeren over prikken for å se navnet på stasjonen.

Klikk så for å se værobservasjoner og -varsler.

For å forandre kartet kan du klikke på den grønne knappen med svart kryss for å zoome inn, på den grønne knappen med strek for å zoome ut, eller på de grønne pilene for å se tilstøtende kart.


METAR-TAF: